sensor_id;sensor_type;location;lat;lon;timestamp;P1;durP1;ratioP1;P2;durP2;ratioP2
20399;SDS011;10359;53.596;22.520;2023-02-22T00:01:19;5.57;;;4.03;;
20399;SDS011;10359;53.596;22.520;2023-02-22T00:04:21;5.73;;;4.17;;
20399;SDS011;10359;53.596;22.520;2023-02-22T00:07:11;6.73;;;4.60;;
20399;SDS011;10359;53.596;22.520;2023-02-22T00:10:01;5.93;;;4.30;;
20399;SDS011;10359;53.596;22.520;2023-02-22T00:12:55;5.10;;;3.90;;
20399;SDS011;10359;53.596;22.520;2023-02-22T00:15:47;5.80;;;3.97;;
20399;SDS011;10359;53.596;22.520;2023-02-22T00:18:36;5.40;;;4.13;;
20399;SDS011;10359;53.596;22.520;2023-02-22T00:21:26;6.00;;;4.17;;
20399;SDS011;10359;53.596;22.520;2023-02-22T00:24:17;4.90;;;4.00;;
20399;SDS011;10359;53.596;22.520;2023-02-22T00:27:13;4.70;;;3.93;;
20399;SDS011;10359;53.596;22.520;2023-02-22T00:30:03;7.27;;;4.43;;
20399;SDS011;10359;53.596;22.520;2023-02-22T00:32:57;4.47;;;3.80;;
20399;SDS011;10359;53.596;22.520;2023-02-22T00:35:47;6.40;;;3.80;;
20399;SDS011;10359;53.596;22.520;2023-02-22T00:38:36;6.77;;;4.17;;
20399;SDS011;10359;53.596;22.520;2023-02-22T00:41:28;4.97;;;4.20;;
20399;SDS011;10359;53.596;22.520;2023-02-22T00:44:17;6.07;;;4.20;;
20399;SDS011;10359;53.596;22.520;2023-02-22T00:47:08;5.57;;;4.20;;
20399;SDS011;10359;53.596;22.520;2023-02-22T00:49:59;4.83;;;3.60;;
20399;SDS011;10359;53.596;22.520;2023-02-22T00:52:50;5.03;;;4.27;;
20399;SDS011;10359;53.596;22.520;2023-02-22T00:55:40;5.23;;;3.93;;
20399;SDS011;10359;53.596;22.520;2023-02-22T00:58:30;5.53;;;4.20;;
20399;SDS011;10359;53.596;22.520;2023-02-22T01:01:20;4.20;;;3.67;;
20399;SDS011;10359;53.596;22.520;2023-02-22T01:04:10;5.00;;;3.67;;
20399;SDS011;10359;53.596;22.520;2023-02-22T01:07:02;5.83;;;3.93;;
20399;SDS011;10359;53.596;22.520;2023-02-22T01:09:52;5.07;;;3.63;;
20399;SDS011;10359;53.596;22.520;2023-02-22T01:12:42;5.53;;;4.00;;
20399;SDS011;10359;53.596;22.520;2023-02-22T01:15:31;4.97;;;3.83;;
20399;SDS011;10359;53.596;22.520;2023-02-22T01:18:22;5.67;;;3.90;;
20399;SDS011;10359;53.596;22.520;2023-02-22T01:21:12;4.50;;;3.63;;
20399;SDS011;10359;53.596;22.520;2023-02-22T01:24:04;4.77;;;3.80;;
20399;SDS011;10359;53.596;22.520;2023-02-22T01:26:53;5.63;;;3.83;;
20399;SDS011;10359;53.596;22.520;2023-02-22T01:29:43;4.40;;;3.93;;
20399;SDS011;10359;53.596;22.520;2023-02-22T01:32:33;4.60;;;3.67;;
20399;SDS011;10359;53.596;22.520;2023-02-22T01:35:25;4.73;;;4.13;;
20399;SDS011;10359;53.596;22.520;2023-02-22T01:38:16;5.30;;;4.00;;
20399;SDS011;10359;53.596;22.520;2023-02-22T01:41:08;5.07;;;4.17;;
20399;SDS011;10359;53.596;22.520;2023-02-22T01:43:57;4.70;;;4.20;;
20399;SDS011;10359;53.596;22.520;2023-02-22T01:47:02;4.70;;;3.97;;
20399;SDS011;10359;53.596;22.520;2023-02-22T01:49:55;5.20;;;4.17;;
20399;SDS011;10359;53.596;22.520;2023-02-22T01:52:45;6.10;;;3.93;;
20399;SDS011;10359;53.596;22.520;2023-02-22T01:55:34;5.60;;;3.90;;
20399;SDS011;10359;53.596;22.520;2023-02-22T01:58:27;5.83;;;4.17;;
20399;SDS011;10359;53.596;22.520;2023-02-22T02:01:20;5.53;;;4.20;;
20399;SDS011;10359;53.596;22.520;2023-02-22T02:04:13;4.20;;;3.30;;
20399;SDS011;10359;53.596;22.520;2023-02-22T02:07:07;5.00;;;3.90;;
20399;SDS011;10359;53.596;22.520;2023-02-22T02:10:02;5.27;;;3.80;;
20399;SDS011;10359;53.596;22.520;2023-02-22T06:55:52;8.70;;;4.07;;
20399;SDS011;10359;53.596;22.520;2023-02-22T06:58:43;4.80;;;3.77;;
20399;SDS011;10359;53.596;22.520;2023-02-22T07:01:32;5.23;;;3.93;;
20399;SDS011;10359;53.596;22.520;2023-02-22T07:04:22;4.93;;;3.23;;
20399;SDS011;10359;53.596;22.520;2023-02-22T07:07:12;6.73;;;3.97;;
20399;SDS011;10359;53.596;22.520;2023-02-22T07:10:04;4.70;;;3.47;;
20399;SDS011;10359;53.596;22.520;2023-02-22T07:12:55;14.83;;;6.93;;
20399;SDS011;10359;53.596;22.520;2023-02-22T07:15:45;5.23;;;3.07;;
20399;SDS011;10359;53.596;22.520;2023-02-22T07:18:36;4.47;;;3.20;;
20399;SDS011;10359;53.596;22.520;2023-02-22T07:21:26;4.17;;;3.27;;
20399;SDS011;10359;53.596;22.520;2023-02-22T07:24:19;3.57;;;3.10;;
20399;SDS011;10359;53.596;22.520;2023-02-22T07:27:11;14.70;;;7.43;;
20399;SDS011;10359;53.596;22.520;2023-02-22T07:30:01;50.80;;;20.77;;
20399;SDS011;10359;53.596;22.520;2023-02-22T07:32:52;4.07;;;3.10;;
20399;SDS011;10359;53.596;22.520;2023-02-22T07:35:44;4.87;;;3.03;;
20399;SDS011;10359;53.596;22.520;2023-02-22T07:38:34;4.10;;;3.20;;
20399;SDS011;10359;53.596;22.520;2023-02-22T07:41:24;17.80;;;11.37;;
20399;SDS011;10359;53.596;22.520;2023-02-22T07:44:16;3.27;;;2.83;;
20399;SDS011;10359;53.596;22.520;2023-02-22T07:47:06;3.77;;;2.40;;
20399;SDS011;10359;53.596;22.520;2023-02-22T07:49:58;4.80;;;2.97;;
20399;SDS011;10359;53.596;22.520;2023-02-22T07:52:50;3.57;;;2.53;;
20399;SDS011;10359;53.596;22.520;2023-02-22T07:55:41;3.70;;;2.70;;
20399;SDS011;10359;53.596;22.520;2023-02-22T07:58:31;2.27;;;2.00;;
20399;SDS011;10359;53.596;22.520;2023-02-22T08:01:23;4.10;;;2.50;;
20399;SDS011;10359;53.596;22.520;2023-02-22T08:04:13;14.17;;;9.13;;
20399;SDS011;10359;53.596;22.520;2023-02-22T08:07:02;3.87;;;2.80;;
20399;SDS011;10359;53.596;22.520;2023-02-22T08:09:52;4.27;;;2.83;;
20399;SDS011;10359;53.596;22.520;2023-02-22T08:12:44;3.67;;;2.73;;
20399;SDS011;10359;53.596;22.520;2023-02-22T08:15:36;3.93;;;3.00;;
20399;SDS011;10359;53.596;22.520;2023-02-22T08:18:29;3.60;;;2.90;;
20399;SDS011;10359;53.596;22.520;2023-02-22T08:21:20;8.10;;;6.00;;
20399;SDS011;10359;53.596;22.520;2023-02-22T08:24:09;4.23;;;3.43;;
20399;SDS011;10359;53.596;22.520;2023-02-22T08:26:59;4.70;;;3.30;;
20399;SDS011;10359;53.596;22.520;2023-02-22T08:29:49;5.90;;;4.83;;
20399;SDS011;10359;53.596;22.520;2023-02-22T08:32:39;59.83;;;46.80;;
20399;SDS011;10359;53.596;22.520;2023-02-22T08:35:31;22.63;;;14.90;;
20399;SDS011;10359;53.596;22.520;2023-02-22T08:38:23;28.70;;;24.77;;
20399;SDS011;10359;53.596;22.520;2023-02-22T08:41:15;4.90;;;3.63;;
20399;SDS011;10359;53.596;22.520;2023-02-22T08:44:05;5.97;;;5.23;;
20399;SDS011;10359;53.596;22.520;2023-02-22T08:46:55;5.17;;;3.60;;
20399;SDS011;10359;53.596;22.520;2023-02-22T08:49:45;4.23;;;3.40;;
20399;SDS011;10359;53.596;22.520;2023-02-22T08:52:37;7.23;;;5.40;;
20399;SDS011;10359;53.596;22.520;2023-02-22T08:55:28;4.87;;;3.93;;
20399;SDS011;10359;53.596;22.520;2023-02-22T08:58:19;3.60;;;3.20;;
20399;SDS011;10359;53.596;22.520;2023-02-22T09:01:09;5.30;;;3.60;;
20399;SDS011;10359;53.596;22.520;2023-02-22T09:04:07;4.43;;;3.33;;
20399;SDS011;10359;53.596;22.520;2023-02-22T09:06:58;4.80;;;3.07;;
20399;SDS011;10359;53.596;22.520;2023-02-22T09:09:49;27.97;;;16.77;;
20399;SDS011;10359;53.596;22.520;2023-02-22T09:12:39;4.17;;;3.57;;
20399;SDS011;10359;53.596;22.520;2023-02-22T09:15:29;6.13;;;4.27;;
20399;SDS011;10359;53.596;22.520;2023-02-22T09:18:20;4.33;;;3.50;;
20399;SDS011;10359;53.596;22.520;2023-02-22T09:21:16;4.23;;;3.60;;
20399;SDS011;10359;53.596;22.520;2023-02-22T09:24:07;3.13;;;2.87;;
20399;SDS011;10359;53.596;22.520;2023-02-22T09:26:59;5.13;;;3.40;;
20399;SDS011;10359;53.596;22.520;2023-02-22T09:29:50;4.10;;;3.67;;
20399;SDS011;10359;53.596;22.520;2023-02-22T09:32:40;4.23;;;3.03;;
20399;SDS011;10359;53.596;22.520;2023-02-22T09:35:30;3.80;;;3.30;;
20399;SDS011;10359;53.596;22.520;2023-02-22T09:38:22;4.70;;;3.50;;
20399;SDS011;10359;53.596;22.520;2023-02-22T09:41:14;6.63;;;3.97;;
20399;SDS011;10359;53.596;22.520;2023-02-22T09:44:13;5.40;;;4.03;;
20399;SDS011;10359;53.596;22.520;2023-02-22T09:47:09;4.23;;;3.83;;
20399;SDS011;10359;53.596;22.520;2023-02-22T09:50:07;8.30;;;7.50;;
20399;SDS011;10359;53.596;22.520;2023-02-22T09:53:02;4.97;;;3.50;;
20399;SDS011;10359;53.596;22.520;2023-02-22T09:55:56;4.37;;;3.30;;
20399;SDS011;10359;53.596;22.520;2023-02-22T09:58:50;4.50;;;3.50;;
20399;SDS011;10359;53.596;22.520;2023-02-22T10:01:46;3.90;;;3.27;;
20399;SDS011;10359;53.596;22.520;2023-02-22T10:04:43;3.93;;;3.57;;
20399;SDS011;10359;53.596;22.520;2023-02-22T10:07:39;4.03;;;3.33;;
20399;SDS011;10359;53.596;22.520;2023-02-22T10:10:35;24.20;;;22.00;;
20399;SDS011;10359;53.596;22.520;2023-02-22T10:13:28;4.50;;;3.50;;
20399;SDS011;10359;53.596;22.520;2023-02-22T10:16:25;5.47;;;3.40;;
20399;SDS011;10359;53.596;22.520;2023-02-22T10:19:27;4.53;;;3.63;;
20399;SDS011;10359;53.596;22.520;2023-02-22T10:22:26;5.30;;;3.63;;
20399;SDS011;10359;53.596;22.520;2023-02-22T10:25:27;4.50;;;3.23;;
20399;SDS011;10359;53.596;22.520;2023-02-22T10:28:23;4.67;;;4.27;;
20399;SDS011;10359;53.596;22.520;2023-02-22T10:31:19;4.30;;;3.80;;
20399;SDS011;10359;53.596;22.520;2023-02-22T10:34:14;5.33;;;4.30;;
20399;SDS011;10359;53.596;22.520;2023-02-22T10:37:20;5.97;;;4.50;;
20399;SDS011;10359;53.596;22.520;2023-02-22T10:40:14;5.67;;;3.97;;
20399;SDS011;10359;53.596;22.520;2023-02-22T10:43:07;4.77;;;3.70;;
20399;SDS011;10359;53.596;22.520;2023-02-22T10:45:59;4.80;;;3.83;;
20399;SDS011;10359;53.596;22.520;2023-02-22T10:48:53;5.30;;;3.90;;
20399;SDS011;10359;53.596;22.520;2023-02-22T10:51:51;6.67;;;4.50;;
20399;SDS011;10359;53.596;22.520;2023-02-22T10:54:49;5.37;;;3.97;;
20399;SDS011;10359;53.596;22.520;2023-02-22T10:57:47;4.93;;;3.77;;
20399;SDS011;10359;53.596;22.520;2023-02-22T11:00:39;5.57;;;4.07;;
20399;SDS011;10359;53.596;22.520;2023-02-22T11:03:31;5.53;;;3.90;;
20399;SDS011;10359;53.596;22.520;2023-02-22T11:06:22;6.60;;;4.33;;
20399;SDS011;10359;53.596;22.520;2023-02-22T11:09:14;6.07;;;4.23;;
20399;SDS011;10359;53.596;22.520;2023-02-22T11:12:10;4.27;;;3.70;;
20399;SDS011;10359;53.596;22.520;2023-02-22T11:15:25;5.37;;;3.67;;
20399;SDS011;10359;53.596;22.520;2023-02-22T11:18:22;5.83;;;3.80;;
20399;SDS011;10359;53.596;22.520;2023-02-22T11:21:19;5.23;;;3.87;;
20399;SDS011;10359;53.596;22.520;2023-02-22T11:24:11;4.90;;;3.70;;
20399;SDS011;10359;53.596;22.520;2023-02-22T11:27:07;6.27;;;4.17;;
20399;SDS011;10359;53.596;22.520;2023-02-22T11:30:09;5.10;;;3.93;;
20399;SDS011;10359;53.596;22.520;2023-02-22T11:33:10;5.57;;;4.17;;
20399;SDS011;10359;53.596;22.520;2023-02-22T11:36:10;4.87;;;3.73;;
20399;SDS011;10359;53.596;22.520;2023-02-22T11:39:03;3.87;;;3.10;;
20399;SDS011;10359;53.596;22.520;2023-02-22T11:41:57;8.13;;;5.10;;
20399;SDS011;10359;53.596;22.520;2023-02-22T11:45:12;6.33;;;4.47;;
20399;SDS011;10359;53.596;22.520;2023-02-22T11:48:14;4.20;;;3.37;;
20399;SDS011;10359;53.596;22.520;2023-02-22T11:51:13;5.77;;;4.10;;
20399;SDS011;10359;53.596;22.520;2023-02-22T11:54:14;6.20;;;4.47;;
20399;SDS011;10359;53.596;22.520;2023-02-22T11:57:24;7.07;;;4.67;;
20399;SDS011;10359;53.596;22.520;2023-02-22T12:00:29;5.57;;;3.83;;
20399;SDS011;10359;53.596;22.520;2023-02-22T12:03:27;5.80;;;4.40;;
20399;SDS011;10359;53.596;22.520;2023-02-22T12:06:42;5.33;;;3.80;;
20399;SDS011;10359;53.596;22.520;2023-02-22T12:09:38;5.77;;;3.57;;
20399;SDS011;10359;53.596;22.520;2023-02-22T12:12:37;4.83;;;3.50;;
20399;SDS011;10359;53.596;22.520;2023-02-22T12:15:44;4.63;;;3.47;;
20399;SDS011;10359;53.596;22.520;2023-02-22T12:18:41;7.07;;;4.30;;
20399;SDS011;10359;53.596;22.520;2023-02-22T12:21:40;7.07;;;4.40;;
20399;SDS011;10359;53.596;22.520;2023-02-22T12:24:33;6.40;;;4.10;;
20399;SDS011;10359;53.596;22.520;2023-02-22T12:27:27;5.63;;;4.10;;
20399;SDS011;10359;53.596;22.520;2023-02-22T12:30:25;5.90;;;4.53;;
20399;SDS011;10359;53.596;22.520;2023-02-22T12:33:19;6.30;;;3.90;;
20399;SDS011;10359;53.596;22.520;2023-02-22T12:36:15;6.63;;;5.10;;
20399;SDS011;10359;53.596;22.520;2023-02-22T12:39:20;6.27;;;4.50;;
20399;SDS011;10359;53.596;22.520;2023-02-22T12:42:15;6.03;;;4.60;;
20399;SDS011;10359;53.596;22.520;2023-02-22T12:45:10;7.97;;;4.83;;
20399;SDS011;10359;53.596;22.520;2023-02-22T12:48:08;7.87;;;4.57;;
20399;SDS011;10359;53.596;22.520;2023-02-22T12:51:22;7.03;;;4.90;;
20399;SDS011;10359;53.596;22.520;2023-02-22T12:54:19;9.10;;;5.80;;
20399;SDS011;10359;53.596;22.520;2023-02-22T12:57:17;7.53;;;5.60;;
20399;SDS011;10359;53.596;22.520;2023-02-22T13:00:15;8.57;;;5.63;;
20399;SDS011;10359;53.596;22.520;2023-02-22T13:03:23;7.17;;;5.13;;
20399;SDS011;10359;53.596;22.520;2023-02-22T13:06:32;8.20;;;5.27;;
20399;SDS011;10359;53.596;22.520;2023-02-22T13:12:47;7.17;;;4.90;;
20399;SDS011;10359;53.596;22.520;2023-02-22T13:15:45;6.43;;;4.60;;
20399;SDS011;10359;53.596;22.520;2023-02-22T13:18:45;6.30;;;4.43;;
20399;SDS011;10359;53.596;22.520;2023-02-22T13:21:42;5.77;;;4.50;;
20399;SDS011;10359;53.596;22.520;2023-02-22T13:24:38;6.23;;;4.37;;
20399;SDS011;10359;53.596;22.520;2023-02-22T13:27:37;4.93;;;4.17;;
20399;SDS011;10359;53.596;22.520;2023-02-22T13:30:34;7.10;;;4.20;;
20399;SDS011;10359;53.596;22.520;2023-02-22T13:37:05;5.93;;;3.83;;
20399;SDS011;10359;53.596;22.520;2023-02-22T13:40:14;6.23;;;4.43;;
20399;SDS011;10359;53.596;22.520;2023-02-22T13:43:33;5.43;;;4.40;;
20399;SDS011;10359;53.596;22.520;2023-02-22T13:47:03;5.90;;;4.47;;
20399;SDS011;10359;53.596;22.520;2023-02-22T13:53:41;7.87;;;4.70;;
20399;SDS011;10359;53.596;22.520;2023-02-22T13:56:40;7.57;;;4.60;;
20399;SDS011;10359;53.596;22.520;2023-02-22T13:59:32;6.50;;;4.57;;
20399;SDS011;10359;53.596;22.520;2023-02-22T14:02:30;6.20;;;4.30;;
20399;SDS011;10359;53.596;22.520;2023-02-22T14:08:40;7.37;;;5.00;;
20399;SDS011;10359;53.596;22.520;2023-02-22T14:14:32;8.07;;;5.33;;
20399;SDS011;10359;53.596;22.520;2023-02-22T14:17:32;9.20;;;5.30;;
20399;SDS011;10359;53.596;22.520;2023-02-22T14:20:23;7.37;;;4.80;;
20399;SDS011;10359;53.596;22.520;2023-02-22T14:23:32;6.20;;;3.97;;
20399;SDS011;10359;53.596;22.520;2023-02-22T14:26:27;6.83;;;4.67;;
20399;SDS011;10359;53.596;22.520;2023-02-22T14:29:18;8.60;;;5.70;;
20399;SDS011;10359;53.596;22.520;2023-02-22T14:32:08;9.33;;;5.63;;
20399;SDS011;10359;53.596;22.520;2023-02-22T14:35:02;7.87;;;5.60;;
20399;SDS011;10359;53.596;22.520;2023-02-22T14:38:12;11.13;;;6.30;;
20399;SDS011;10359;53.596;22.520;2023-02-22T14:41:08;13.00;;;7.43;;
20399;SDS011;10359;53.596;22.520;2023-02-22T14:43:58;9.87;;;6.73;;
20399;SDS011;10359;53.596;22.520;2023-02-22T14:46:53;14.93;;;8.67;;
20399;SDS011;10359;53.596;22.520;2023-02-22T14:49:49;12.67;;;8.30;;
20399;SDS011;10359;53.596;22.520;2023-02-22T14:52:41;11.63;;;6.97;;
20399;SDS011;10359;53.596;22.520;2023-02-22T14:55:36;8.93;;;5.07;;
20399;SDS011;10359;53.596;22.520;2023-02-22T14:58:32;9.17;;;6.50;;
20399;SDS011;10359;53.596;22.520;2023-02-22T15:01:28;10.53;;;6.90;;
20399;SDS011;10359;53.596;22.520;2023-02-22T15:04:40;9.60;;;6.77;;
20399;SDS011;10359;53.596;22.520;2023-02-22T15:07:45;11.37;;;6.63;;
20399;SDS011;10359;53.596;22.520;2023-02-22T15:10:39;11.03;;;7.40;;
20399;SDS011;10359;53.596;22.520;2023-02-22T15:13:32;12.27;;;7.83;;
20399;SDS011;10359;53.596;22.520;2023-02-22T15:16:22;10.80;;;7.13;;
20399;SDS011;10359;53.596;22.520;2023-02-22T15:19:15;9.50;;;6.20;;
20399;SDS011;10359;53.596;22.520;2023-02-22T15:22:17;11.70;;;6.67;;
20399;SDS011;10359;53.596;22.520;2023-02-22T15:25:09;10.50;;;7.53;;
20399;SDS011;10359;53.596;22.520;2023-02-22T15:28:00;10.80;;;7.17;;
20399;SDS011;10359;53.596;22.520;2023-02-22T15:34:23;10.10;;;7.43;;
20399;SDS011;10359;53.596;22.520;2023-02-22T15:37:19;11.03;;;7.40;;
20399;SDS011;10359;53.596;22.520;2023-02-22T15:40:12;11.03;;;7.30;;
20399;SDS011;10359;53.596;22.520;2023-02-22T15:43:05;9.93;;;6.87;;
20399;SDS011;10359;53.596;22.520;2023-02-22T15:45:57;12.57;;;7.40;;
20399;SDS011;10359;53.596;22.520;2023-02-22T15:51:45;13.57;;;7.37;;
20399;SDS011;10359;53.596;22.520;2023-02-22T15:54:50;15.50;;;9.13;;
20399;SDS011;10359;53.596;22.520;2023-02-22T15:57:41;18.63;;;9.93;;
20399;SDS011;10359;53.596;22.520;2023-02-22T16:00:32;20.37;;;11.37;;
20399;SDS011;10359;53.596;22.520;2023-02-22T16:03:24;41.33;;;22.70;;
20399;SDS011;10359;53.596;22.520;2023-02-22T16:06:23;48.67;;;26.70;;
20399;SDS011;10359;53.596;22.520;2023-02-22T16:09:19;50.77;;;28.13;;
20399;SDS011;10359;53.596;22.520;2023-02-22T16:12:22;49.00;;;26.77;;
20399;SDS011;10359;53.596;22.520;2023-02-22T16:15:13;58.37;;;33.97;;
20399;SDS011;10359;53.596;22.520;2023-02-22T16:18:15;55.20;;;33.47;;
20399;SDS011;10359;53.596;22.520;2023-02-22T16:21:12;48.20;;;29.30;;
20399;SDS011;10359;53.596;22.520;2023-02-22T16:24:05;46.60;;;28.50;;
20399;SDS011;10359;53.596;22.520;2023-02-22T16:27:17;41.90;;;24.80;;
20399;SDS011;10359;53.596;22.520;2023-02-22T16:30:20;34.87;;;20.93;;
20399;SDS011;10359;53.596;22.520;2023-02-22T16:33:14;33.63;;;20.13;;
20399;SDS011;10359;53.596;22.520;2023-02-22T16:36:05;24.47;;;16.13;;
20399;SDS011;10359;53.596;22.520;2023-02-22T16:38:55;28.47;;;16.93;;
20399;SDS011;10359;53.596;22.520;2023-02-22T16:41:46;23.57;;;14.83;;
20399;SDS011;10359;53.596;22.520;2023-02-22T16:44:38;28.53;;;19.93;;
20399;SDS011;10359;53.596;22.520;2023-02-22T16:47:27;38.70;;;26.60;;
20399;SDS011;10359;53.596;22.520;2023-02-22T16:50:18;32.20;;;20.23;;
20399;SDS011;10359;53.596;22.520;2023-02-22T16:53:10;29.03;;;18.00;;
20399;SDS011;10359;53.596;22.520;2023-02-22T16:56:01;20.70;;;14.10;;
20399;SDS011;10359;53.596;22.520;2023-02-22T16:58:54;17.03;;;11.77;;
20399;SDS011;10359;53.596;22.520;2023-02-22T17:01:45;15.93;;;11.43;;
20399;SDS011;10359;53.596;22.520;2023-02-22T17:04:34;19.23;;;12.30;;
20399;SDS011;10359;53.596;22.520;2023-02-22T17:07:26;23.07;;;14.27;;
20399;SDS011;10359;53.596;22.520;2023-02-22T17:10:18;18.30;;;12.13;;
20399;SDS011;10359;53.596;22.520;2023-02-22T17:13:08;13.80;;;9.10;;
20399;SDS011;10359;53.596;22.520;2023-02-22T17:16:12;13.83;;;8.90;;
20399;SDS011;10359;53.596;22.520;2023-02-22T17:19:07;20.73;;;14.40;;
20399;SDS011;10359;53.596;22.520;2023-02-22T17:22:10;23.90;;;14.57;;
20399;SDS011;10359;53.596;22.520;2023-02-22T17:25:17;20.77;;;13.50;;
20399;SDS011;10359;53.596;22.520;2023-02-22T17:28:17;15.50;;;8.60;;
20399;SDS011;10359;53.596;22.520;2023-02-22T17:31:21;13.03;;;7.77;;
20399;SDS011;10359;53.596;22.520;2023-02-22T17:34:20;18.60;;;10.13;;
20399;SDS011;10359;53.596;22.520;2023-02-22T17:37:17;52.17;;;27.07;;
20399;SDS011;10359;53.596;22.520;2023-02-22T17:40:11;19.37;;;11.23;;
20399;SDS011;10359;53.596;22.520;2023-02-22T17:43:10;12.87;;;7.40;;
20399;SDS011;10359;53.596;22.520;2023-02-22T17:46:06;97.97;;;32.27;;
20399;SDS011;10359;53.596;22.520;2023-02-22T17:49:03;206.47;;;57.27;;
20399;SDS011;10359;53.596;22.520;2023-02-22T17:51:53;464.70;;;131.93;;
20399;SDS011;10359;53.596;22.520;2023-02-22T17:54:44;546.57;;;153.23;;
20399;SDS011;10359;53.596;22.520;2023-02-22T17:57:35;443.77;;;119.30;;
20399;SDS011;10359;53.596;22.520;2023-02-22T18:00:32;570.37;;;168.90;;
20399;SDS011;10359;53.596;22.520;2023-02-22T18:03:25;155.93;;;48.13;;
20399;SDS011;10359;53.596;22.520;2023-02-22T18:06:20;82.60;;;31.90;;
20399;SDS011;10359;53.596;22.520;2023-02-22T18:09:15;384.40;;;128.00;;
20399;SDS011;10359;53.596;22.520;2023-02-22T18:12:13;270.63;;;95.60;;
20399;SDS011;10359;53.596;22.520;2023-02-22T18:15:04;57.77;;;24.63;;
20399;SDS011;10359;53.596;22.520;2023-02-22T18:17:57;31.03;;;16.67;;
20399;SDS011;10359;53.596;22.520;2023-02-22T18:20:49;18.83;;;11.37;;
20399;SDS011;10359;53.596;22.520;2023-02-22T18:23:49;16.93;;;10.57;;
20399;SDS011;10359;53.596;22.520;2023-02-22T18:26:45;16.27;;;10.57;;
20399;SDS011;10359;53.596;22.520;2023-02-22T18:29:43;20.30;;;12.40;;
20399;SDS011;10359;53.596;22.520;2023-02-22T18:32:37;33.63;;;15.23;;
20399;SDS011;10359;53.596;22.520;2023-02-22T18:35:35;32.60;;;14.70;;
20399;SDS011;10359;53.596;22.520;2023-02-22T18:38:26;38.67;;;17.33;;
20399;SDS011;10359;53.596;22.520;2023-02-22T18:41:20;32.97;;;14.97;;
20399;SDS011;10359;53.596;22.520;2023-02-22T18:44:15;32.30;;;14.57;;
20399;SDS011;10359;53.596;22.520;2023-02-22T18:47:07;41.30;;;16.63;;
20399;SDS011;10359;53.596;22.520;2023-02-22T18:49:59;34.63;;;15.93;;
20399;SDS011;10359;53.596;22.520;2023-02-22T18:52:50;35.40;;;16.17;;
20399;SDS011;10359;53.596;22.520;2023-02-22T18:55:41;27.70;;;12.83;;
20399;SDS011;10359;53.596;22.520;2023-02-22T18:58:36;34.37;;;15.03;;
20399;SDS011;10359;53.596;22.520;2023-02-22T19:01:28;47.07;;;19.20;;
20399;SDS011;10359;53.596;22.520;2023-02-22T19:04:26;56.80;;;20.73;;
20399;SDS011;10359;53.596;22.520;2023-02-22T19:07:18;53.37;;;21.37;;
20399;SDS011;10359;53.596;22.520;2023-02-22T19:10:15;47.17;;;20.43;;
20399;SDS011;10359;53.596;22.520;2023-02-22T19:13:09;35.27;;;15.83;;
20399;SDS011;10359;53.596;22.520;2023-02-22T19:16:02;34.77;;;16.73;;
20399;SDS011;10359;53.596;22.520;2023-02-22T19:18:55;34.30;;;18.63;;
20399;SDS011;10359;53.596;22.520;2023-02-22T19:21:46;39.67;;;19.03;;
20399;SDS011;10359;53.596;22.520;2023-02-22T19:24:44;37.13;;;18.73;;
20399;SDS011;10359;53.596;22.520;2023-02-22T19:27:35;37.80;;;18.40;;
20399;SDS011;10359;53.596;22.520;2023-02-22T19:30:29;40.30;;;19.83;;
20399;SDS011;10359;53.596;22.520;2023-02-22T19:33:23;37.90;;;20.67;;
20399;SDS011;10359;53.596;22.520;2023-02-22T19:36:17;36.83;;;19.23;;
20399;SDS011;10359;53.596;22.520;2023-02-22T19:39:11;42.63;;;21.63;;
20399;SDS011;10359;53.596;22.520;2023-02-22T19:42:03;47.80;;;24.77;;
20399;SDS011;10359;53.596;22.520;2023-02-22T19:44:57;52.77;;;25.97;;
20399;SDS011;10359;53.596;22.520;2023-02-22T19:47:52;53.93;;;26.10;;
20399;SDS011;10359;53.596;22.520;2023-02-22T19:50:46;66.20;;;29.07;;
20399;SDS011;10359;53.596;22.520;2023-02-22T19:53:46;64.67;;;29.60;;
20399;SDS011;10359;53.596;22.520;2023-02-22T19:56:38;66.53;;;29.93;;
20399;SDS011;10359;53.596;22.520;2023-02-22T19:59:31;62.23;;;27.70;;
20399;SDS011;10359;53.596;22.520;2023-02-22T20:02:24;56.30;;;27.00;;
20399;SDS011;10359;53.596;22.520;2023-02-22T20:05:17;59.70;;;27.57;;
20399;SDS011;10359;53.596;22.520;2023-02-22T20:08:11;61.97;;;27.40;;
20399;SDS011;10359;53.596;22.520;2023-02-22T20:11:02;59.10;;;26.23;;
20399;SDS011;10359;53.596;22.520;2023-02-22T20:13:53;59.57;;;26.47;;
20399;SDS011;10359;53.596;22.520;2023-02-22T20:16:46;69.40;;;36.05;;
20399;SDS011;10359;53.596;22.520;2023-02-22T20:19:37;63.92;;;34.50;;
20399;SDS011;10359;53.596;22.520;2023-02-22T20:22:30;57.67;;;28.50;;
20399;SDS011;10359;53.596;22.520;2023-02-22T20:25:30;56.43;;;27.77;;
20399;SDS011;10359;53.596;22.520;2023-02-22T20:28:22;55.73;;;26.93;;
20399;SDS011;10359;53.596;22.520;2023-02-22T20:31:14;52.47;;;26.90;;
20399;SDS011;10359;53.596;22.520;2023-02-22T20:34:07;51.53;;;25.97;;
20399;SDS011;10359;53.596;22.520;2023-02-22T20:37:05;50.17;;;26.40;;
20399;SDS011;10359;53.596;22.520;2023-02-22T20:39:57;55.83;;;27.53;;
20399;SDS011;10359;53.596;22.520;2023-02-22T20:42:53;51.33;;;27.20;;
20399;SDS011;10359;53.596;22.520;2023-02-22T20:45:44;56.23;;;28.30;;
20399;SDS011;10359;53.596;22.520;2023-02-22T20:48:36;53.90;;;26.73;;
20399;SDS011;10359;53.596;22.520;2023-02-22T20:51:29;50.07;;;25.40;;
20399;SDS011;10359;53.596;22.520;2023-02-22T20:54:21;54.30;;;27.37;;
20399;SDS011;10359;53.596;22.520;2023-02-22T20:57:12;54.93;;;26.47;;
20399;SDS011;10359;53.596;22.520;2023-02-22T21:00:06;48.13;;;23.57;;
20399;SDS011;10359;53.596;22.520;2023-02-22T21:02:58;46.47;;;25.53;;
20399;SDS011;10359;53.596;22.520;2023-02-22T21:05:50;44.43;;;22.43;;
20399;SDS011;10359;53.596;22.520;2023-02-22T21:08:40;33.30;;;18.93;;
20399;SDS011;10359;53.596;22.520;2023-02-22T21:11:32;31.80;;;16.47;;
20399;SDS011;10359;53.596;22.520;2023-02-22T21:14:23;29.63;;;15.33;;
20399;SDS011;10359;53.596;22.520;2023-02-22T21:17:18;26.10;;;14.30;;
20399;SDS011;10359;53.596;22.520;2023-02-22T21:20:16;26.17;;;14.13;;
20399;SDS011;10359;53.596;22.520;2023-02-22T21:23:09;26.27;;;14.57;;
20399;SDS011;10359;53.596;22.520;2023-02-22T21:25:59;22.60;;;12.63;;
20399;SDS011;10359;53.596;22.520;2023-02-22T21:28:51;19.10;;;11.33;;
20399;SDS011;10359;53.596;22.520;2023-02-22T21:31:43;18.53;;;10.30;;
20399;SDS011;10359;53.596;22.520;2023-02-22T21:34:41;19.97;;;10.53;;
20399;SDS011;10359;53.596;22.520;2023-02-22T21:37:37;18.40;;;9.77;;
20399;SDS011;10359;53.596;22.520;2023-02-22T21:41:15;17.10;;;10.10;;
20399;SDS011;10359;53.596;22.520;2023-02-22T21:44:07;21.47;;;10.63;;
20399;SDS011;10359;53.596;22.520;2023-02-22T21:46:57;18.70;;;9.87;;
20399;SDS011;10359;53.596;22.520;2023-02-22T21:49:49;18.47;;;9.73;;
20399;SDS011;10359;53.596;22.520;2023-02-22T21:52:42;15.70;;;9.93;;
20399;SDS011;10359;53.596;22.520;2023-02-22T21:55:33;16.43;;;8.80;;
20399;SDS011;10359;53.596;22.520;2023-02-22T21:58:24;15.20;;;8.67;;
20399;SDS011;10359;53.596;22.520;2023-02-22T22:01:17;16.60;;;8.67;;
20399;SDS011;10359;53.596;22.520;2023-02-22T22:04:07;14.03;;;8.73;;
20399;SDS011;10359;53.596;22.520;2023-02-22T22:06:59;14.90;;;8.60;;
20399;SDS011;10359;53.596;22.520;2023-02-22T22:09:50;17.33;;;8.87;;